createdAt,value
2022-12-26T00:04:53.529Z,13.43
2022-12-26T00:09:55.481Z,13.24
2022-12-26T00:14:57.202Z,13.39
2022-12-26T00:19:58.890Z,13.61
2022-12-26T00:25:00.594Z,13.82
2022-12-26T00:30:02.170Z,13.91
2022-12-26T00:35:04.206Z,13.96
2022-12-26T00:40:06.606Z,14.19
2022-12-26T00:45:08.537Z,12.62
2022-12-26T00:50:13.222Z,13.38
2022-12-26T00:55:16.771Z,13.54
2022-12-26T01:00:18.569Z,14.84
2022-12-26T01:05:20.224Z,14.71
2022-12-26T01:10:21.919Z,14.29
2022-12-26T01:15:23.576Z,14.03
2022-12-26T01:20:25.295Z,14.55
2022-12-26T01:25:26.948Z,14.20
2022-12-26T01:30:28.698Z,13.99
2022-12-26T01:35:30.335Z,12.35
2022-12-26T01:40:32.187Z,14.02
2022-12-26T01:45:33.959Z,14.56
2022-12-26T01:50:48.863Z,14.29
2022-12-26T01:55:56.627Z,13.76
2022-12-26T02:00:58.822Z,14.57
2022-12-26T02:06:01.427Z,14.06
2022-12-26T02:11:14.980Z,14.11
2022-12-26T02:16:18.684Z,13.21
2022-12-26T02:21:23.216Z,14.07
2022-12-26T02:26:39.636Z,14.75
2022-12-26T02:32:09.063Z,14.10
2022-12-26T02:37:22.894Z,13.96
2022-12-26T02:42:42.595Z,12.64
2022-12-26T02:47:58.545Z,13.65
2022-12-26T02:53:28.135Z,13.67
2022-12-26T02:59:00.490Z,13.79
2022-12-26T03:04:44.369Z,13.90
2022-12-26T03:10:06.575Z,11.95
2022-12-26T03:15:15.620Z,13.03
2022-12-26T03:20:23.248Z,13.99
2022-12-26T03:26:03.248Z,13.67
2022-12-26T03:31:07.931Z,14.36
2022-12-26T03:36:33.739Z,14.76
2022-12-26T03:42:20.769Z,12.35
2022-12-26T03:47:45.521Z,12.18
2022-12-26T03:53:41.746Z,12.34
2022-12-26T03:59:28.894Z,13.04
2022-12-26T04:04:53.306Z,13.84
2022-12-26T04:10:28.156Z,13.94
2022-12-26T04:16:13.957Z,14.27
2022-12-26T04:21:46.338Z,14.78
2022-12-26T04:27:13.477Z,14.11
2022-12-26T04:32:48.642Z,14.23
2022-12-26T04:38:10.455Z,14.90
2022-12-26T04:43:49.388Z,14.59
2022-12-26T19:07:18.562Z,11.54
2022-12-26T19:12:21.160Z,11.44
2022-12-26T19:17:22.729Z,12.30
2022-12-26T19:22:24.410Z,12.72
2022-12-26T19:27:26.001Z,12.70
2022-12-26T19:32:27.680Z,11.23
2022-12-26T19:37:29.351Z,10.83
2022-12-26T19:42:33.836Z,11.62
2022-12-26T19:47:35.604Z,12.29
2022-12-26T19:52:38.877Z,12.06
2022-12-26T19:57:40.458Z,11.18
2022-12-26T20:02:42.116Z,12.57
2022-12-26T20:07:43.844Z,12.61
2022-12-26T20:12:45.532Z,12.33
2022-12-26T20:17:47.315Z,11.67
2022-12-26T20:22:52.938Z,12.83
2022-12-26T20:27:55.058Z,13.37
2022-12-26T20:32:57.416Z,13.62
2022-12-26T20:37:59.229Z,12.14
2022-12-26T20:43:00.887Z,11.01
2022-12-26T20:48:02.468Z,11.29
2022-12-26T20:53:04.317Z,11.14
2022-12-26T20:58:05.975Z,13.28
2022-12-26T21:03:07.598Z,13.31
2022-12-26T21:08:09.252Z,10.67
2022-12-26T21:13:10.891Z,13.10
2022-12-26T21:18:12.486Z,11.84
2022-12-26T21:23:14.639Z,10.96
2022-12-26T21:28:16.265Z,12.31
2022-12-26T21:33:17.900Z,10.52
2022-12-26T21:38:24.734Z,11.48
2022-12-26T21:43:30.467Z,10.32
2022-12-26T21:48:32.175Z,10.93
2022-12-26T21:53:36.410Z,10.59
2022-12-26T21:58:57.147Z,9.43
2022-12-26T22:04:17.374Z,11.13
2022-12-26T22:09:19.032Z,10.84
2022-12-26T22:14:21.397Z,10.18
2022-12-26T22:19:24.593Z,10.52
2022-12-26T22:24:26.267Z,8.56
2022-12-26T22:29:27.882Z,9.40
2022-12-26T22:34:29.583Z,8.67
2022-12-26T22:39:31.274Z,8.98
2022-12-26T22:44:32.957Z,9.17
2022-12-26T22:49:34.533Z,9.19
2022-12-26T22:54:37.839Z,8.88
2022-12-26T23:00:07.707Z,7.86
2022-12-26T23:05:01.600Z,9.01
2022-12-26T23:10:05.705Z,8.78
2022-12-26T23:15:08.167Z,8.21
2022-12-26T23:20:32.044Z,8.07
2022-12-26T23:25:33.649Z,8.05
2022-12-26T23:30:35.747Z,8.42
2022-12-26T23:35:37.465Z,8.56
2022-12-26T23:40:39.079Z,8.81
2022-12-26T23:45:44.626Z,8.93
2022-12-26T23:50:46.355Z,8.54
2022-12-26T23:55:47.969Z,8.71
